Aviation Digital Data Service (ADDS)

Output produced by METARs form (2237 UTC 30 March 2017)
found at http://www.aviationweather.gov/adds/metars/
 
TJBQ 301745Z 3018/3118 07016KT P6SM FEW025 SCT060 
     FM302300 10009KT P6SM VCSH SCT022 SCT040 
     FM311400 08015KT P6SM SCT030 SCT060
       
TJMZ 301745Z 3018/3118 29015KT P6SM VCSH FEW020 SCT030 BKN040 
     FM302200 06006KT P6SM SCT040 
     FM311500 27012KT P6SM VCSH SCT030 SCT040 AMD NOT SKED
       
TJPS 301745Z 3018/3118 15010KT P6SM VCTS SCT020CB SCT030 BKN040 
     TEMPO 3018/3022 3SM +SHRA BKN030 
     FM302330 09007KT P6SM FEW025 SCT080 
     FM311400 14013KT P6SM SCT030 SCT060
       
TJSJ 301745Z 3018/3118 05014KT P6SM VCSH SCT025 SCT035 SCT060 
     FM302200 06004KT P6SM FEW025 
     FM311300 06013KT P6SM SCT030 SCT060